sensor_id;sensor_type;location;lat;lon;timestamp;P1;durP1;ratioP1;P2;durP2;ratioP2
51664;SDS011;37751;52.408;12.536;2023-06-19T00:00:11;12.15;;;9.48;;
51664;SDS011;37751;52.408;12.536;2023-06-19T00:02:44;13.15;;;9.45;;
51664;SDS011;37751;52.408;12.536;2023-06-19T00:05:12;11.88;;;9.10;;
51664;SDS011;37751;52.408;12.536;2023-06-19T00:07:40;14.77;;;9.27;;
51664;SDS011;37751;52.408;12.536;2023-06-19T00:10:08;15.25;;;8.32;;
51664;SDS011;37751;52.408;12.536;2023-06-19T00:12:36;10.00;;;8.93;;
51664;SDS011;37751;52.408;12.536;2023-06-19T00:15:04;8.82;;;7.93;;
51664;SDS011;37751;52.408;12.536;2023-06-19T00:17:32;12.02;;;8.43;;
51664;SDS011;37751;52.408;12.536;2023-06-19T00:20:00;12.20;;;8.98;;
51664;SDS011;37751;52.408;12.536;2023-06-19T00:22:28;9.80;;;8.80;;
51664;SDS011;37751;52.408;12.536;2023-06-19T00:24:56;13.18;;;8.85;;
51664;SDS011;37751;52.408;12.536;2023-06-19T00:27:24;12.23;;;9.55;;
51664;SDS011;37751;52.408;12.536;2023-06-19T00:29:51;9.52;;;8.52;;
51664;SDS011;37751;52.408;12.536;2023-06-19T00:32:19;10.73;;;9.38;;
51664;SDS011;37751;52.408;12.536;2023-06-19T00:34:47;10.32;;;9.30;;
51664;SDS011;37751;52.408;12.536;2023-06-19T00:37:15;12.57;;;9.27;;
51664;SDS011;37751;52.408;12.536;2023-06-19T00:39:43;11.75;;;9.23;;
51664;SDS011;37751;52.408;12.536;2023-06-19T00:42:11;10.30;;;9.15;;
51664;SDS011;37751;52.408;12.536;2023-06-19T00:44:39;12.23;;;9.38;;
51664;SDS011;37751;52.408;12.536;2023-06-19T00:47:07;14.18;;;9.20;;
51664;SDS011;37751;52.408;12.536;2023-06-19T00:49:35;10.65;;;9.10;;
51664;SDS011;37751;52.408;12.536;2023-06-19T00:52:03;12.75;;;8.95;;
51664;SDS011;37751;52.408;12.536;2023-06-19T00:54:31;10.10;;;9.10;;
51664;SDS011;37751;52.408;12.536;2023-06-19T00:57:00;10.75;;;8.98;;
51664;SDS011;37751;52.408;12.536;2023-06-19T00:59:28;12.50;;;9.75;;
51664;SDS011;37751;52.408;12.536;2023-06-19T01:01:57;13.00;;;9.02;;
51664;SDS011;37751;52.408;12.536;2023-06-19T01:04:25;10.80;;;9.45;;
51664;SDS011;37751;52.408;12.536;2023-06-19T01:06:57;13.13;;;9.38;;
51664;SDS011;37751;52.408;12.536;2023-06-19T01:09:45;9.90;;;8.90;;
51664;SDS011;37751;52.408;12.536;2023-06-19T01:12:28;10.43;;;9.18;;
51664;SDS011;37751;52.408;12.536;2023-06-19T01:15:02;11.82;;;8.93;;
51664;SDS011;37751;52.408;12.536;2023-06-19T01:17:32;10.95;;;9.30;;
51664;SDS011;37751;52.408;12.536;2023-06-19T01:20:03;9.20;;;8.15;;
51664;SDS011;37751;52.408;12.536;2023-06-19T01:22:38;13.23;;;9.27;;
51664;SDS011;37751;52.408;12.536;2023-06-19T01:25:06;11.43;;;8.57;;
51664;SDS011;37751;52.408;12.536;2023-06-19T01:27:36;9.32;;;8.15;;
51664;SDS011;37751;52.408;12.536;2023-06-19T01:30:05;10.27;;;8.70;;
51664;SDS011;37751;52.408;12.536;2023-06-19T01:35:06;10.88;;;9.77;;
51664;SDS011;37751;52.408;12.536;2023-06-19T01:37:37;9.73;;;8.73;;
51664;SDS011;37751;52.408;12.536;2023-06-19T01:40:08;9.80;;;8.80;;
51664;SDS011;37751;52.408;12.536;2023-06-19T01:42:39;10.88;;;9.45;;
51664;SDS011;37751;52.408;12.536;2023-06-19T01:45:09;10.80;;;9.00;;
51664;SDS011;37751;52.408;12.536;2023-06-19T01:47:40;10.20;;;9.27;;
51664;SDS011;37751;52.408;12.536;2023-06-19T01:50:23;13.63;;;9.20;;
51664;SDS011;37751;52.408;12.536;2023-06-19T01:52:52;10.48;;;9.43;;
51664;SDS011;37751;52.408;12.536;2023-06-19T01:55:20;10.68;;;9.57;;
51664;SDS011;37751;52.408;12.536;2023-06-19T01:57:49;11.18;;;10.07;;
51664;SDS011;37751;52.408;12.536;2023-06-19T02:00:19;10.63;;;9.20;;
51664;SDS011;37751;52.408;12.536;2023-06-19T02:02:47;11.30;;;10.10;;
51664;SDS011;37751;52.408;12.536;2023-06-19T02:05:17;12.73;;;10.00;;
51664;SDS011;37751;52.408;12.536;2023-06-19T02:07:45;11.15;;;9.73;;
51664;SDS011;37751;52.408;12.536;2023-06-19T02:10:15;11.07;;;9.85;;
51664;SDS011;37751;52.408;12.536;2023-06-19T02:12:43;12.55;;;10.00;;
51664;SDS011;37751;52.408;12.536;2023-06-19T02:15:11;10.75;;;9.68;;
51664;SDS011;37751;52.408;12.536;2023-06-19T02:17:39;13.45;;;10.10;;
51664;SDS011;37751;52.408;12.536;2023-06-19T02:20:10;10.18;;;9.15;;
51664;SDS011;37751;52.408;12.536;2023-06-19T02:22:39;10.80;;;9.70;;
51664;SDS011;37751;52.408;12.536;2023-06-19T02:25:12;15.38;;;10.52;;
51664;SDS011;37751;52.408;12.536;2023-06-19T02:27:43;11.05;;;9.95;;
51664;SDS011;37751;52.408;12.536;2023-06-19T02:30:14;11.60;;;10.40;;
51664;SDS011;37751;52.408;12.536;2023-06-19T02:32:49;12.95;;;10.00;;
51664;SDS011;37751;52.408;12.536;2023-06-19T02:35:20;10.63;;;9.60;;
51664;SDS011;37751;52.408;12.536;2023-06-19T02:37:51;10.88;;;9.77;;
51664;SDS011;37751;52.408;12.536;2023-06-19T02:40:20;11.65;;;9.85;;
51664;SDS011;37751;52.408;12.536;2023-06-19T02:42:50;14.18;;;10.45;;
51664;SDS011;37751;52.408;12.536;2023-06-19T02:45:18;11.35;;;10.25;;
51664;SDS011;37751;52.408;12.536;2023-06-19T02:47:48;11.80;;;10.20;;
51664;SDS011;37751;52.408;12.536;2023-06-19T02:50:18;12.00;;;10.68;;
51664;SDS011;37751;52.408;12.536;2023-06-19T02:52:53;11.98;;;10.65;;
51664;SDS011;37751;52.408;12.536;2023-06-19T02:55:21;11.55;;;10.40;;
51664;SDS011;37751;52.408;12.536;2023-06-19T02:57:49;12.57;;;11.27;;
51664;SDS011;37751;52.408;12.536;2023-06-19T03:00:19;14.18;;;10.30;;
51664;SDS011;37751;52.408;12.536;2023-06-19T03:02:48;11.48;;;10.38;;
51664;SDS011;37751;52.408;12.536;2023-06-19T03:05:18;11.80;;;10.70;;
51664;SDS011;37751;52.408;12.536;2023-06-19T03:07:48;11.07;;;9.95;;
51664;SDS011;37751;52.408;12.536;2023-06-19T03:10:16;11.82;;;10.60;;
51664;SDS011;37751;52.408;12.536;2023-06-19T03:12:44;12.48;;;10.98;;
51664;SDS011;37751;52.408;12.536;2023-06-19T03:15:12;15.55;;;10.00;;
51664;SDS011;37751;52.408;12.536;2023-06-19T03:17:43;11.73;;;10.10;;
51664;SDS011;37751;52.408;12.536;2023-06-19T03:20:13;13.18;;;10.23;;
51664;SDS011;37751;52.408;12.536;2023-06-19T03:22:48;17.42;;;10.70;;
51664;SDS011;37751;52.408;12.536;2023-06-19T03:25:22;16.27;;;10.38;;
51664;SDS011;37751;52.408;12.536;2023-06-19T03:27:50;12.73;;;10.00;;
51664;SDS011;37751;52.408;12.536;2023-06-19T03:30:18;12.05;;;10.68;;
51664;SDS011;37751;52.408;12.536;2023-06-19T03:32:52;12.07;;;10.48;;
51664;SDS011;37751;52.408;12.536;2023-06-19T03:35:53;14.35;;;11.20;;
51664;SDS011;37751;52.408;12.536;2023-06-19T03:38:31;14.43;;;10.90;;
51664;SDS011;37751;52.408;12.536;2023-06-19T03:40:59;13.70;;;12.15;;
51664;SDS011;37751;52.408;12.536;2023-06-19T03:43:29;12.75;;;11.35;;
51664;SDS011;37751;52.408;12.536;2023-06-19T03:46:00;12.85;;;11.48;;
51664;SDS011;37751;52.408;12.536;2023-06-19T03:48:28;12.38;;;11.07;;
51664;SDS011;37751;52.408;12.536;2023-06-19T03:51:01;12.80;;;10.93;;
51664;SDS011;37751;52.408;12.536;2023-06-19T03:53:29;16.08;;;10.82;;
51664;SDS011;37751;52.408;12.536;2023-06-19T03:56:02;13.30;;;10.95;;
51664;SDS011;37751;52.408;12.536;2023-06-19T03:58:31;14.73;;;11.73;;
51664;SDS011;37751;52.408;12.536;2023-06-19T04:00:59;12.50;;;11.05;;
51664;SDS011;37751;52.408;12.536;2023-06-19T04:03:30;14.02;;;11.00;;
51664;SDS011;37751;52.408;12.536;2023-06-19T04:06:02;13.30;;;11.50;;
51664;SDS011;37751;52.408;12.536;2023-06-19T04:08:30;13.05;;;11.50;;
51664;SDS011;37751;52.408;12.536;2023-06-19T04:11:03;15.32;;;11.23;;
51664;SDS011;37751;52.408;12.536;2023-06-19T04:13:31;13.35;;;11.50;;
51664;SDS011;37751;52.408;12.536;2023-06-19T04:15:59;11.73;;;10.52;;
51664;SDS011;37751;52.408;12.536;2023-06-19T04:18:29;12.82;;;11.52;;
51664;SDS011;37751;52.408;12.536;2023-06-19T04:21:17;13.77;;;10.77;;
51664;SDS011;37751;52.408;12.536;2023-06-19T04:23:50;11.02;;;9.88;;
51664;SDS011;37751;52.408;12.536;2023-06-19T04:29:50;13.80;;;10.70;;
51664;SDS011;37751;52.408;12.536;2023-06-19T04:32:40;13.20;;;11.80;;
51664;SDS011;37751;52.408;12.536;2023-06-19T04:35:12;12.93;;;10.65;;
51664;SDS011;37751;52.408;12.536;2023-06-19T04:37:43;11.90;;;10.70;;
51664;SDS011;37751;52.408;12.536;2023-06-19T04:40:11;12.90;;;11.60;;
51664;SDS011;37751;52.408;12.536;2023-06-19T04:42:40;15.18;;;13.68;;
51664;SDS011;37751;52.408;12.536;2023-06-19T04:45:08;12.35;;;11.10;;
51664;SDS011;37751;52.408;12.536;2023-06-19T04:47:40;15.55;;;11.65;;
51664;SDS011;37751;52.408;12.536;2023-06-19T04:50:20;14.38;;;11.02;;
51664;SDS011;37751;52.408;12.536;2023-06-19T04:52:50;14.82;;;10.93;;
51664;SDS011;37751;52.408;12.536;2023-06-19T04:55:56;12.50;;;11.18;;
51664;SDS011;37751;52.408;12.536;2023-06-19T04:58:45;13.60;;;12.18;;
51664;SDS011;37751;52.408;12.536;2023-06-19T05:01:14;12.93;;;11.02;;
51664;SDS011;37751;52.408;12.536;2023-06-19T05:03:50;13.00;;;11.57;;
51664;SDS011;37751;52.408;12.536;2023-06-19T05:06:25;13.85;;;11.65;;
51664;SDS011;37751;52.408;12.536;2023-06-19T05:09:03;14.32;;;10.77;;
51664;SDS011;37751;52.408;12.536;2023-06-19T05:11:35;12.13;;;10.93;;
51664;SDS011;37751;52.408;12.536;2023-06-19T05:14:13;12.00;;;10.48;;
51664;SDS011;37751;52.408;12.536;2023-06-19T05:16:43;12.27;;;10.88;;
51664;SDS011;37751;52.408;12.536;2023-06-19T05:19:47;12.18;;;10.77;;
51664;SDS011;37751;52.408;12.536;2023-06-19T05:22:22;11.70;;;10.52;;
51664;SDS011;37751;52.408;12.536;2023-06-19T05:25:13;11.43;;;9.85;;
51664;SDS011;37751;52.408;12.536;2023-06-19T05:28:20;12.20;;;10.98;;
51664;SDS011;37751;52.408;12.536;2023-06-19T05:31:21;11.80;;;10.70;;
51664;SDS011;37751;52.408;12.536;2023-06-19T05:34:28;14.60;;;10.55;;
51664;SDS011;37751;52.408;12.536;2023-06-19T05:37:02;11.93;;;10.73;;
51664;SDS011;37751;52.408;12.536;2023-06-19T05:39:47;12.23;;;10.82;;
51664;SDS011;37751;52.408;12.536;2023-06-19T05:42:27;12.95;;;10.63;;
51664;SDS011;37751;52.408;12.536;2023-06-19T05:45:41;11.85;;;10.30;;
51664;SDS011;37751;52.408;12.536;2023-06-19T05:48:12;12.40;;;10.80;;
51664;SDS011;37751;52.408;12.536;2023-06-19T05:50:50;12.77;;;10.57;;
51664;SDS011;37751;52.408;12.536;2023-06-19T05:53:56;12.27;;;10.95;;
51664;SDS011;37751;52.408;12.536;2023-06-19T05:56:34;14.10;;;10.98;;
51664;SDS011;37751;52.408;12.536;2023-06-19T05:59:12;14.70;;;11.48;;
51664;SDS011;37751;52.408;12.536;2023-06-19T06:01:51;12.52;;;11.13;;
51664;SDS011;37751;52.408;12.536;2023-06-19T06:04:41;13.25;;;10.00;;
51664;SDS011;37751;52.408;12.536;2023-06-19T06:07:46;12.77;;;11.38;;
51664;SDS011;37751;52.408;12.536;2023-06-19T06:10:39;12.73;;;10.38;;
51664;SDS011;37751;52.408;12.536;2023-06-19T06:13:10;12.43;;;11.13;;
51664;SDS011;37751;52.408;12.536;2023-06-19T06:15:53;11.85;;;10.38;;
51664;SDS011;37751;52.408;12.536;2023-06-19T06:18:25;12.30;;;11.10;;
51664;SDS011;37751;52.408;12.536;2023-06-19T06:21:13;12.32;;;11.18;;
51664;SDS011;37751;52.408;12.536;2023-06-19T06:24:19;14.00;;;11.38;;
51664;SDS011;37751;52.408;12.536;2023-06-19T06:26:55;15.13;;;11.20;;
51664;SDS011;37751;52.408;12.536;2023-06-19T06:29:31;12.15;;;10.82;;
51664;SDS011;37751;52.408;12.536;2023-06-19T06:32:24;12.70;;;11.48;;
51664;SDS011;37751;52.408;12.536;2023-06-19T06:35:02;11.68;;;10.48;;
51664;SDS011;37751;52.408;12.536;2023-06-19T06:37:53;12.68;;;11.43;;
51664;SDS011;37751;52.408;12.536;2023-06-19T06:40:33;14.68;;;11.77;;
51664;SDS011;37751;52.408;12.536;2023-06-19T06:43:14;14.65;;;12.43;;
51664;SDS011;37751;52.408;12.536;2023-06-19T06:45:42;13.63;;;12.30;;
51664;SDS011;37751;52.408;12.536;2023-06-19T06:48:20;12.60;;;11.35;;
51664;SDS011;37751;52.408;12.536;2023-06-19T06:50:48;13.95;;;11.27;;
51664;SDS011;37751;52.408;12.536;2023-06-19T06:53:21;12.85;;;11.55;;
51664;SDS011;37751;52.408;12.536;2023-06-19T06:55:52;12.73;;;11.43;;
51664;SDS011;37751;52.408;12.536;2023-06-19T06:58:45;15.38;;;10.95;;
51664;SDS011;37751;52.408;12.536;2023-06-19T07:01:33;12.25;;;11.02;;
51664;SDS011;37751;52.408;12.536;2023-06-19T07:04:11;12.90;;;11.30;;
51664;SDS011;37751;52.408;12.536;2023-06-19T07:06:42;17.75;;;11.50;;
51664;SDS011;37751;52.408;12.536;2023-06-19T07:09:13;12.43;;;11.23;;
51664;SDS011;37751;52.408;12.536;2023-06-19T07:11:42;12.55;;;11.35;;
51664;SDS011;37751;52.408;12.536;2023-06-19T07:14:13;16.73;;;12.02;;
51664;SDS011;37751;52.408;12.536;2023-06-19T07:16:42;15.15;;;12.15;;
51664;SDS011;37751;52.408;12.536;2023-06-19T07:19:10;13.38;;;11.70;;
51664;SDS011;37751;52.408;12.536;2023-06-19T07:21:40;16.42;;;12.80;;
51664;SDS011;37751;52.408;12.536;2023-06-19T07:24:14;16.73;;;12.55;;
51664;SDS011;37751;52.408;12.536;2023-06-19T07:26:45;12.73;;;11.40;;
51664;SDS011;37751;52.408;12.536;2023-06-19T07:29:22;17.73;;;12.02;;
51664;SDS011;37751;52.408;12.536;2023-06-19T07:31:53;16.20;;;11.85;;
51664;SDS011;37751;52.408;12.536;2023-06-19T07:34:21;12.73;;;11.43;;
51664;SDS011;37751;52.408;12.536;2023-06-19T07:36:51;13.07;;;11.77;;
51664;SDS011;37751;52.408;12.536;2023-06-19T07:39:21;14.20;;;12.18;;
51664;SDS011;37751;52.408;12.536;2023-06-19T07:41:52;16.38;;;12.13;;
51664;SDS011;37751;52.408;12.536;2023-06-19T07:44:20;22.00;;;11.90;;
51664;SDS011;37751;52.408;12.536;2023-06-19T07:46:48;13.05;;;11.63;;
51664;SDS011;37751;52.408;12.536;2023-06-19T07:49:20;13.18;;;11.60;;
51664;SDS011;37751;52.408;12.536;2023-06-19T07:51:51;12.52;;;11.32;;
51664;SDS011;37751;52.408;12.536;2023-06-19T07:54:19;11.73;;;10.40;;
51664;SDS011;37751;52.408;12.536;2023-06-19T07:56:53;13.68;;;10.43;;
51664;SDS011;37751;52.408;12.536;2023-06-19T07:59:21;11.60;;;10.40;;
51664;SDS011;37751;52.408;12.536;2023-06-19T08:02:00;12.25;;;10.25;;
51664;SDS011;37751;52.408;12.536;2023-06-19T08:04:35;11.45;;;10.25;;
51664;SDS011;37751;52.408;12.536;2023-06-19T08:07:09;12.77;;;10.40;;
51664;SDS011;37751;52.408;12.536;2023-06-19T08:09:42;11.65;;;10.23;;
51664;SDS011;37751;52.408;12.536;2023-06-19T08:12:35;11.68;;;10.10;;
51664;SDS011;37751;52.408;12.536;2023-06-19T08:15:12;12.23;;;10.07;;
51664;SDS011;37751;52.408;12.536;2023-06-19T08:17:51;14.07;;;9.65;;
51664;SDS011;37751;52.408;12.536;2023-06-19T08:20:19;12.18;;;10.07;;
51664;SDS011;37751;52.408;12.536;2023-06-19T08:22:50;14.40;;;11.32;;
51664;SDS011;37751;52.408;12.536;2023-06-19T08:25:21;12.60;;;10.38;;
51664;SDS011;37751;52.408;12.536;2023-06-19T08:28:09;11.60;;;10.50;;
51664;SDS011;37751;52.408;12.536;2023-06-19T08:30:38;17.02;;;10.80;;
51664;SDS011;37751;52.408;12.536;2023-06-19T08:33:13;15.90;;;12.10;;
51664;SDS011;37751;52.408;12.536;2023-06-19T08:35:41;12.05;;;10.85;;
51664;SDS011;37751;52.408;12.536;2023-06-19T08:38:33;12.32;;;11.05;;
51664;SDS011;37751;52.408;12.536;2023-06-19T08:41:02;12.77;;;10.88;;
51664;SDS011;37751;52.408;12.536;2023-06-19T08:43:33;15.27;;;11.05;;
51664;SDS011;37751;52.408;12.536;2023-06-19T08:46:16;17.45;;;11.55;;
51664;SDS011;37751;52.408;12.536;2023-06-19T08:49:03;12.60;;;9.95;;
51664;SDS011;37751;52.408;12.536;2023-06-19T08:51:40;16.65;;;10.50;;
51664;SDS011;37751;52.408;12.536;2023-06-19T08:54:17;12.77;;;10.10;;
51664;SDS011;37751;52.408;12.536;2023-06-19T08:56:46;12.88;;;10.55;;
51664;SDS011;37751;52.408;12.536;2023-06-19T08:59:20;17.17;;;10.77;;
51664;SDS011;37751;52.408;12.536;2023-06-19T09:02:16;15.15;;;11.57;;
51664;SDS011;37751;52.408;12.536;2023-06-19T09:04:54;11.40;;;9.82;;
51664;SDS011;37751;52.408;12.536;2023-06-19T09:07:42;12.98;;;10.55;;
51664;SDS011;37751;52.408;12.536;2023-06-19T09:10:16;15.25;;;10.75;;
51664;SDS011;37751;52.408;12.536;2023-06-19T09:12:59;13.40;;;11.45;;
51664;SDS011;37751;52.408;12.536;2023-06-19T09:15:37;11.45;;;10.27;;
51664;SDS011;37751;52.408;12.536;2023-06-19T09:18:18;13.45;;;10.52;;
51664;SDS011;37751;52.408;12.536;2023-06-19T09:20:55;12.45;;;10.65;;
51664;SDS011;37751;52.408;12.536;2023-06-19T09:23:24;13.68;;;10.95;;
51664;SDS011;37751;52.408;12.536;2023-06-19T09:25:59;13.10;;;11.60;;
51664;SDS011;37751;52.408;12.536;2023-06-19T09:28:41;13.43;;;12.07;;
51664;SDS011;37751;52.408;12.536;2023-06-19T09:31:12;13.63;;;11.80;;
51664;SDS011;37751;52.408;12.536;2023-06-19T09:33:54;15.10;;;12.23;;
51664;SDS011;37751;52.408;12.536;2023-06-19T09:36:22;15.32;;;12.57;;
51664;SDS011;37751;52.408;12.536;2023-06-19T09:38:51;14.50;;;11.82;;
51664;SDS011;37751;52.408;12.536;2023-06-19T09:41:20;17.17;;;11.45;;
51664;SDS011;37751;52.408;12.536;2023-06-19T09:43:57;11.65;;;10.43;;
51664;SDS011;37751;52.408;12.536;2023-06-19T09:46:52;12.85;;;10.95;;
51664;SDS011;37751;52.408;12.536;2023-06-19T09:49:27;12.48;;;11.20;;
51664;SDS011;37751;52.408;12.536;2023-06-19T09:52:14;10.93;;;9.82;;
51664;SDS011;37751;52.408;12.536;2023-06-19T09:54:43;11.55;;;10.35;;
51664;SDS011;37751;52.408;12.536;2023-06-19T09:57:16;11.05;;;9.95;;
51664;SDS011;37751;52.408;12.536;2023-06-19T10:00:11;10.40;;;9.45;;
51664;SDS011;37751;52.408;12.536;2023-06-19T10:03:10;11.70;;;10.60;;
51664;SDS011;37751;52.408;12.536;2023-06-19T10:05:57;10.57;;;9.50;;
51664;SDS011;37751;52.408;12.536;2023-06-19T10:08:50;10.98;;;9.55;;
51664;SDS011;37751;52.408;12.536;2023-06-19T10:11:46;15.00;;;9.75;;
51664;SDS011;37751;52.408;12.536;2023-06-19T10:14:24;11.35;;;10.13;;
51664;SDS011;37751;52.408;12.536;2023-06-19T10:16:53;12.27;;;10.95;;
51664;SDS011;37751;52.408;12.536;2023-06-19T10:19:33;12.07;;;10.70;;
51664;SDS011;37751;52.408;12.536;2023-06-19T10:22:02;11.45;;;10.40;;
51664;SDS011;37751;52.408;12.536;2023-06-19T10:24:48;9.70;;;7.97;;
51664;SDS011;37751;52.408;12.536;2023-06-19T10:28:00;9.57;;;8.57;;
51664;SDS011;37751;52.408;12.536;2023-06-19T10:30:43;11.00;;;8.75;;
51664;SDS011;37751;52.408;12.536;2023-06-19T10:33:11;10.27;;;9.38;;
51664;SDS011;37751;52.408;12.536;2023-06-19T10:36:22;11.90;;;9.18;;
51664;SDS011;37751;52.408;12.536;2023-06-19T10:38:53;10.73;;;9.65;;
51664;SDS011;37751;52.408;12.536;2023-06-19T10:41:24;12.43;;;10.10;;
51664;SDS011;37751;52.408;12.536;2023-06-19T10:44:03;11.45;;;10.35;;
51664;SDS011;37751;52.408;12.536;2023-06-19T10:46:42;12.25;;;9.50;;
51664;SDS011;37751;52.408;12.536;2023-06-19T10:49:13;10.23;;;9.27;;
51664;SDS011;37751;52.408;12.536;2023-06-19T10:51:58;9.70;;;8.85;;
51664;SDS011;37751;52.408;12.536;2023-06-19T10:55:18;11.50;;;10.45;;
51664;SDS011;37751;52.408;12.536;2023-06-19T10:58:03;11.00;;;9.98;;
51664;SDS011;37751;52.408;12.536;2023-06-19T11:00:52;11.30;;;10.30;;
51664;SDS011;37751;52.408;12.536;2023-06-19T11:03:41;11.23;;;10.05;;
51664;SDS011;37751;52.408;12.536;2023-06-19T11:06:19;11.57;;;9.93;;
51664;SDS011;37751;52.408;12.536;2023-06-19T11:09:15;11.20;;;10.20;;
51664;SDS011;37751;52.408;12.536;2023-06-19T11:11:50;12.55;;;10.73;;
51664;SDS011;37751;52.408;12.536;2023-06-19T11:14:19;12.00;;;11.00;;
51664;SDS011;37751;52.408;12.536;2023-06-19T11:17:05;13.68;;;10.88;;
51664;SDS011;37751;52.408;12.536;2023-06-19T11:19:38;13.32;;;11.30;;
51664;SDS011;37751;52.408;12.536;2023-06-19T11:22:13;11.55;;;10.40;;
51664;SDS011;37751;52.408;12.536;2023-06-19T11:24:54;12.60;;;9.88;;
51664;SDS011;37751;52.408;12.536;2023-06-19T11:27:31;11.30;;;10.30;;
51664;SDS011;37751;52.408;12.536;2023-06-19T11:30:13;12.15;;;11.02;;
51664;SDS011;37751;52.408;12.536;2023-06-19T11:36:05;11.15;;;9.98;;
51664;SDS011;37751;52.408;12.536;2023-06-19T11:38:40;11.10;;;9.98;;
51664;SDS011;37751;52.408;12.536;2023-06-19T11:41:28;12.27;;;10.65;;
51664;SDS011;37751;52.408;12.536;2023-06-19T11:44:24;11.15;;;10.05;;
51664;SDS011;37751;52.408;12.536;2023-06-19T11:47:49;11.98;;;10.77;;
51664;SDS011;37751;52.408;12.536;2023-06-19T11:50:29;11.82;;;10.80;;
51664;SDS011;37751;52.408;12.536;2023-06-19T11:53:32;12.70;;;11.40;;
51664;SDS011;37751;52.408;12.536;2023-06-19T11:56:16;12.35;;;11.10;;
51664;SDS011;37751;52.408;12.536;2023-06-19T11:59:25;12.75;;;10.77;;
51664;SDS011;37751;52.408;12.536;2023-06-19T12:02:26;11.90;;;10.70;;
51664;SDS011;37751;52.408;12.536;2023-06-19T12:05:20;11.32;;;10.35;;
51664;SDS011;37751;52.408;12.536;2023-06-19T12:08:25;12.82;;;11.52;;
51664;SDS011;37751;52.408;12.536;2023-06-19T12:12:34;11.88;;;9.98;;
51664;SDS011;37751;52.408;12.536;2023-06-19T12:15:31;12.20;;;10.80;;
51664;SDS011;37751;52.408;12.536;2023-06-19T12:18:05;11.80;;;10.70;;
51664;SDS011;37751;52.408;12.536;2023-06-19T12:20:56;11.00;;;9.75;;
51664;SDS011;37751;52.408;12.536;2023-06-19T12:27:03;9.80;;;8.85;;
51664;SDS011;37751;52.408;12.536;2023-06-19T12:30:34;9.00;;;7.82;;
51664;SDS011;37751;52.408;12.536;2023-06-19T12:33:54;8.98;;;8.18;;
51664;SDS011;37751;52.408;12.536;2023-06-19T12:37:07;10.15;;;9.27;;
51664;SDS011;37751;52.408;12.536;2023-06-19T12:40:24;10.88;;;9.88;;
51664;SDS011;37751;52.408;12.536;2023-06-19T12:43:03;10.10;;;9.10;;
51664;SDS011;37751;52.408;12.536;2023-06-19T12:45:44;12.15;;;9.10;;
51664;SDS011;37751;52.408;12.536;2023-06-19T12:48:33;10.13;;;9.23;;
51664;SDS011;37751;52.408;12.536;2023-06-19T12:51:37;10.60;;;9.70;;
51664;SDS011;37751;52.408;12.536;2023-06-19T12:54:28;8.82;;;7.97;;
51664;SDS011;37751;52.408;12.536;2023-06-19T12:57:05;11.38;;;7.82;;
51664;SDS011;37751;52.408;12.536;2023-06-19T12:59:46;8.38;;;7.57;;
51664;SDS011;37751;52.408;12.536;2023-06-19T13:02:21;13.15;;;9.00;;
51664;SDS011;37751;52.408;12.536;2023-06-19T13:05:15;8.90;;;7.97;;
51664;SDS011;37751;52.408;12.536;2023-06-19T13:07:46;11.32;;;8.02;;
51664;SDS011;37751;52.408;12.536;2023-06-19T13:12:02;9.20;;;8.30;;
51664;SDS011;37751;52.408;12.536;2023-06-19T13:15:17;8.57;;;7.90;;
51664;SDS011;37751;52.408;12.536;2023-06-19T13:18:11;8.55;;;7.75;;
51664;SDS011;37751;52.408;12.536;2023-06-19T13:21:44;9.90;;;8.40;;
51664;SDS011;37751;52.408;12.536;2023-06-19T13:24:36;8.68;;;7.80;;
51664;SDS011;37751;52.408;12.536;2023-06-19T13:27:08;8.02;;;7.28;;
51664;SDS011;37751;52.408;12.536;2023-06-19T13:30:08;8.00;;;7.30;;
51664;SDS011;37751;52.408;12.536;2023-06-19T13:33:00;12.10;;;7.85;;
51664;SDS011;37751;52.408;12.536;2023-06-19T13:35:42;8.27;;;7.57;;
51664;SDS011;37751;52.408;12.536;2023-06-19T13:38:24;8.48;;;7.40;;
51664;SDS011;37751;52.408;12.536;2023-06-19T13:40:53;8.90;;;8.07;;
51664;SDS011;37751;52.408;12.536;2023-06-19T13:43:38;8.05;;;7.43;;
51664;SDS011;37751;52.408;12.536;2023-06-19T13:46:47;8.68;;;7.82;;
51664;SDS011;37751;52.408;12.536;2023-06-19T13:51:24;8.63;;;7.80;;
51664;SDS011;37751;52.408;12.536;2023-06-19T13:54:56;8.73;;;7.88;;
51664;SDS011;37751;52.408;12.536;2023-06-19T13:58:03;11.80;;;8.05;;
51664;SDS011;37751;52.408;12.536;2023-06-19T14:00:55;8.85;;;8.00;;
51664;SDS011;37751;52.408;12.536;2023-06-19T14:03:36;9.68;;;8.77;;
51664;SDS011;37751;52.408;12.536;2023-06-19T14:10:24;8.68;;;7.78;;
51664;SDS011;37751;52.408;12.536;2023-06-19T14:13:49;9.90;;;7.72;;
51664;SDS011;37751;52.408;12.536;2023-06-19T14:16:41;9.90;;;8.90;;
51664;SDS011;37751;52.408;12.536;2023-06-19T14:28:37;9.35;;;8.07;;
51664;SDS011;37751;52.408;12.536;2023-06-19T14:32:34;12.68;;;7.50;;
51664;SDS011;37751;52.408;12.536;2023-06-19T14:35:13;10.25;;;8.13;;
51664;SDS011;37751;52.408;12.536;2023-06-19T14:40:33;8.77;;;7.28;;
51664;SDS011;37751;52.408;12.536;2023-06-19T14:43:09;8.35;;;7.65;;
51664;SDS011;37751;52.408;12.536;2023-06-19T14:45:53;7.68;;;7.07;;
51664;SDS011;37751;52.408;12.536;2023-06-19T14:48:24;8.60;;;7.72;;
51664;SDS011;37751;52.408;12.536;2023-06-19T14:51:01;8.75;;;7.85;;
51664;SDS011;37751;52.408;12.536;2023-06-19T14:53:32;8.18;;;7.47;;
51664;SDS011;37751;52.408;12.536;2023-06-19T14:56:00;10.20;;;7.53;;
51664;SDS011;37751;52.408;12.536;2023-06-19T14:58:33;8.52;;;7.78;;
51664;SDS011;37751;52.408;12.536;2023-06-19T15:01:04;8.52;;;7.82;;
51664;SDS011;37751;52.408;12.536;2023-06-19T15:03:33;8.48;;;7.78;;
51664;SDS011;37751;52.408;12.536;2023-06-19T15:06:26;9.02;;;8.23;;
51664;SDS011;37751;52.408;12.536;2023-06-19T15:09:49;9.55;;;8.30;;
51664;SDS011;37751;52.408;12.536;2023-06-19T15:13:05;8.63;;;7.57;;
51664;SDS011;37751;52.408;12.536;2023-06-19T15:20:16;15.75;;;8.75;;
51664;SDS011;37751;52.408;12.536;2023-06-19T15:28:09;9.10;;;8.27;;
51664;SDS011;37751;52.408;12.536;2023-06-19T15:35:43;9.50;;;8.60;;
51664;SDS011;37751;52.408;12.536;2023-06-19T15:38:42;10.80;;;9.70;;
51664;SDS011;37751;52.408;12.536;2023-06-19T15:41:10;9.98;;;9.05;;
51664;SDS011;37751;52.408;12.536;2023-06-19T15:43:39;10.82;;;9.93;;
51664;SDS011;37751;52.408;12.536;2023-06-19T15:46:07;8.75;;;7.95;;
51664;SDS011;37751;52.408;12.536;2023-06-19T15:48:35;12.55;;;8.50;;
51664;SDS011;37751;52.408;12.536;2023-06-19T15:51:03;9.45;;;8.13;;
51664;SDS011;37751;52.408;12.536;2023-06-19T15:53:31;8.63;;;7.93;;
51664;SDS011;37751;52.408;12.536;2023-06-19T15:55:59;8.73;;;7.93;;
51664;SDS011;37751;52.408;12.536;2023-06-19T15:58:27;9.05;;;8.15;;
51664;SDS011;37751;52.408;12.536;2023-06-19T16:00:55;8.48;;;7.70;;
51664;SDS011;37751;52.408;12.536;2023-06-19T16:03:23;9.30;;;8.35;;
51664;SDS011;37751;52.408;12.536;2023-06-19T16:05:51;8.73;;;7.93;;
51664;SDS011;37751;52.408;12.536;2023-06-19T16:08:22;7.85;;;7.15;;
51664;SDS011;37751;52.408;12.536;2023-06-19T16:10:51;9.50;;;8.35;;